createdAt,value
2017-11-01T00:00:44.711Z,0.00
2017-11-01T00:01:44.698Z,0.00
2017-11-01T00:02:44.683Z,0.00
2017-11-01T00:03:44.668Z,0.00
2017-11-01T00:04:44.654Z,0.00
2017-11-01T00:05:44.641Z,0.00
2017-11-01T00:06:44.624Z,0.00
2017-11-01T00:07:44.610Z,0.00
2017-11-01T00:08:44.597Z,0.00
2017-11-01T00:09:44.583Z,0.00
2017-11-01T00:10:44.568Z,0.00
2017-11-01T00:11:44.554Z,0.00
2017-11-01T00:12:44.539Z,0.00
2017-11-01T00:13:44.525Z,0.00
2017-11-01T00:14:44.511Z,0.00
2017-11-01T00:15:44.501Z,0.00
2017-11-01T00:16:44.482Z,0.00
2017-11-01T00:17:44.467Z,0.00
2017-11-01T00:18:44.453Z,0.00
2017-11-01T00:19:44.438Z,0.00
2017-11-01T00:20:44.423Z,0.00
2017-11-01T00:21:44.409Z,0.00
2017-11-01T00:22:44.397Z,0.00
2017-11-01T00:23:44.380Z,0.00
2017-11-01T00:24:44.365Z,0.00
2017-11-01T00:25:44.353Z,0.00
2017-11-01T00:26:44.338Z,0.00
2017-11-01T00:27:44.323Z,0.00
2017-11-01T00:28:44.309Z,0.00
2017-11-01T00:29:44.301Z,0.00
2017-11-01T00:30:44.280Z,0.00
2017-11-01T00:31:44.265Z,0.00
2017-11-01T00:32:44.251Z,0.00
2017-11-01T00:33:44.243Z,0.00
2017-11-01T00:34:44.223Z,0.00
2017-11-01T00:35:44.208Z,0.00
2017-11-01T00:36:44.203Z,0.00
2017-11-01T00:37:44.179Z,0.00
2017-11-01T00:38:44.165Z,0.00
2017-11-01T00:39:44.149Z,0.00
2017-11-01T00:40:44.136Z,0.00
2017-11-01T00:41:44.122Z,0.00
2017-11-01T00:42:44.108Z,0.00
2017-11-01T00:43:44.091Z,0.00
2017-11-01T00:44:44.079Z,0.00
2017-11-01T00:45:44.064Z,0.00
2017-11-01T00:46:44.050Z,0.00
2017-11-01T00:47:44.035Z,0.00
2017-11-01T00:48:44.021Z,0.00
2017-11-01T00:49:44.006Z,0.00
2017-11-01T00:50:43.992Z,0.00
2017-11-01T00:51:43.977Z,0.00
2017-11-01T00:52:43.963Z,0.00
2017-11-01T00:53:43.949Z,0.00
2017-11-01T00:54:43.935Z,0.00
2017-11-01T00:55:43.919Z,0.00
2017-11-01T00:56:43.904Z,0.00
2017-11-01T00:57:43.892Z,0.00
2017-11-01T00:58:43.877Z,0.00
2017-11-01T00:59:43.862Z,0.00
2017-11-01T01:00:43.861Z,0.00
2017-11-01T01:01:43.834Z,0.00
2017-11-01T01:02:43.819Z,0.00
2017-11-01T01:03:43.804Z,0.00
2017-11-01T01:04:43.790Z,0.00
2017-11-01T01:05:43.779Z,0.00
2017-11-01T01:06:43.762Z,0.00
2017-11-01T01:07:43.745Z,0.00
2017-11-01T01:08:43.732Z,0.00
2017-11-01T01:09:43.718Z,0.00
2017-11-01T01:10:43.704Z,0.00
2017-11-01T01:11:43.689Z,0.00
2017-11-01T01:12:43.674Z,0.00
2017-11-01T01:13:43.660Z,0.00
2017-11-01T01:14:43.655Z,0.00
2017-11-01T01:15:43.631Z,0.00
2017-11-01T01:16:43.617Z,0.00
2017-11-01T01:17:43.603Z,0.00
2017-11-01T01:18:43.589Z,0.00
2017-11-01T01:19:43.573Z,0.00
2017-11-01T01:20:43.559Z,0.00
2017-11-01T01:21:43.545Z,0.00
2017-11-01T01:22:43.531Z,0.00
2017-11-01T01:23:43.516Z,0.00
2017-11-01T01:24:43.501Z,0.00
2017-11-01T01:25:43.487Z,0.00
2017-11-01T01:26:43.474Z,0.00
2017-11-01T01:27:43.458Z,0.00
2017-11-01T01:28:43.444Z,0.00
2017-11-01T01:29:43.429Z,0.00
2017-11-01T01:30:43.415Z,0.00
2017-11-01T01:31:43.401Z,0.00
2017-11-01T01:32:43.386Z,0.00
2017-11-01T01:33:43.372Z,0.00
2017-11-01T01:34:43.358Z,0.00
2017-11-01T01:35:43.343Z,0.00
2017-11-01T01:36:43.328Z,0.00
2017-11-01T01:37:43.314Z,0.00
2017-11-01T01:38:43.300Z,0.00
2017-11-01T01:39:43.290Z,0.00
2017-11-01T01:40:43.270Z,0.00
2017-11-01T01:41:43.256Z,0.00
2017-11-01T01:42:43.244Z,0.00
2017-11-01T01:43:43.226Z,0.00
2017-11-01T01:44:43.212Z,0.00
2017-11-01T01:45:43.199Z,0.00
2017-11-01T01:46:43.185Z,0.00
2017-11-01T01:47:43.170Z,0.00
2017-11-01T01:48:43.155Z,0.00
2017-11-01T01:49:43.140Z,0.00
2017-11-01T01:50:43.127Z,0.00
2017-11-01T01:51:43.111Z,0.00
2017-11-01T01:52:43.096Z,0.00
2017-11-01T01:53:43.083Z,0.00
2017-11-01T01:54:43.069Z,0.00
2017-11-01T01:55:43.053Z,0.00
2017-11-01T01:56:43.039Z,0.00
2017-11-01T01:57:43.025Z,0.00
2017-11-01T01:58:43.011Z,0.00
2017-11-01T01:59:42.996Z,0.00
2017-11-01T02:00:42.982Z,0.00
2017-11-01T02:01:42.974Z,0.00
2017-11-01T02:02:42.954Z,0.00
2017-11-01T02:03:42.937Z,0.00
2017-11-01T02:04:42.925Z,0.00
2017-11-01T02:05:42.910Z,0.00
2017-11-01T02:06:42.895Z,0.00
2017-11-01T02:07:42.883Z,0.00
2017-11-01T02:08:42.867Z,0.00
2017-11-01T02:09:42.853Z,0.00
2017-11-01T02:10:42.842Z,0.00
2017-11-01T02:11:42.823Z,0.00
2017-11-01T02:12:42.814Z,0.00
2017-11-01T02:13:42.794Z,0.00
2017-11-01T02:14:42.780Z,0.00
2017-11-01T02:15:42.764Z,0.00
2017-11-01T02:16:42.751Z,0.00
2017-11-01T02:17:42.736Z,0.00
2017-11-01T02:18:42.722Z,0.00
2017-11-01T02:19:42.706Z,0.00
2017-11-01T02:20:42.693Z,0.00
2017-11-01T02:21:42.678Z,0.00
2017-11-01T02:22:42.664Z,0.00
2017-11-01T02:23:42.649Z,0.00
2017-11-01T02:24:42.635Z,0.00
2017-11-01T02:25:42.620Z,0.00
2017-11-01T02:26:42.607Z,0.00
2017-11-01T02:27:42.590Z,0.00
2017-11-01T02:28:42.581Z,0.00
2017-11-01T02:29:42.563Z,0.00
2017-11-01T02:30:42.550Z,0.00
2017-11-01T02:31:42.534Z,0.00
2017-11-01T02:32:42.519Z,0.00
2017-11-01T02:33:42.506Z,0.00
2017-11-01T02:34:42.491Z,0.00
2017-11-01T02:35:42.476Z,0.00
2017-11-01T02:36:42.461Z,0.00
2017-11-01T02:37:42.448Z,0.00
2017-11-01T02:38:42.433Z,0.00
2017-11-01T02:39:42.418Z,0.00
2017-11-01T02:40:42.407Z,0.00
2017-11-01T02:41:42.390Z,0.00
2017-11-01T02:42:42.376Z,0.00
2017-11-01T02:43:42.360Z,0.00
2017-11-01T02:44:42.346Z,0.00
2017-11-01T02:45:42.332Z,0.00
2017-11-01T02:46:42.318Z,0.00
2017-11-01T02:47:42.310Z,0.00
2017-11-01T02:48:42.287Z,0.00
2017-11-01T02:49:42.275Z,0.00
2017-11-01T02:50:42.260Z,0.00
2017-11-01T02:51:42.245Z,0.00
2017-11-01T02:52:42.231Z,0.00
2017-11-01T02:53:42.216Z,0.00
2017-11-01T02:54:42.202Z,0.00
2017-11-01T02:55:42.186Z,0.00
2017-11-01T02:56:42.173Z,0.00
2017-11-01T02:57:42.158Z,0.00
2017-11-01T02:58:42.182Z,0.00
2017-11-01T02:59:42.128Z,0.00
2017-11-01T03:00:42.115Z,0.00
2017-11-01T03:01:42.101Z,0.00
2017-11-01T03:02:42.094Z,0.00
2017-11-01T03:03:42.072Z,0.00
2017-11-01T03:04:42.056Z,0.00
2017-11-01T03:05:42.043Z,0.00
2017-11-01T03:06:42.028Z,0.00
2017-11-01T03:07:42.014Z,0.00
2017-11-01T03:08:42.000Z,0.00
2017-11-01T03:09:41.985Z,0.00
2017-11-01T03:10:41.971Z,0.00
2017-11-01T03:11:41.956Z,0.00
2017-11-01T03:12:41.944Z,0.00
2017-11-01T03:13:41.931Z,0.00
2017-11-01T03:14:41.914Z,0.00
2017-11-01T03:15:41.898Z,0.00
2017-11-01T03:16:41.887Z,0.00
2017-11-01T03:17:41.869Z,0.00
2017-11-01T03:18:41.856Z,0.00
2017-11-01T03:19:41.841Z,0.00
2017-11-01T03:20:41.826Z,0.00
2017-11-01T03:21:41.811Z,0.00
2017-11-01T03:22:41.798Z,0.00
2017-11-01T03:23:41.782Z,0.00
2017-11-01T03:24:41.768Z,0.00
2017-11-01T03:25:41.755Z,0.00
2017-11-01T03:26:41.740Z,0.00
2017-11-01T03:27:41.725Z,0.00
2017-11-01T03:28:41.710Z,0.00
2017-11-01T03:29:41.696Z,0.00
2017-11-01T03:30:41.683Z,0.00
2017-11-01T03:31:41.667Z,0.00
2017-11-01T03:32:41.653Z,0.00
2017-11-01T03:33:41.638Z,0.00
2017-11-01T03:34:41.624Z,0.00
2017-11-01T03:35:41.609Z,0.00
2017-11-01T03:36:41.594Z,0.00
2017-11-01T03:37:41.580Z,0.00
2017-11-01T03:38:41.574Z,0.00
2017-11-01T03:39:41.551Z,0.00
2017-11-01T03:40:41.536Z,0.00
2017-11-01T03:41:41.523Z,0.00
2017-11-01T03:42:41.508Z,0.00
2017-11-01T03:43:41.494Z,0.00
2017-11-01T03:44:41.482Z,0.00
2017-11-01T03:45:41.464Z,0.00
2017-11-01T03:46:41.451Z,0.00
2017-11-01T03:47:41.435Z,0.00
2017-11-01T03:48:41.421Z,0.00
2017-11-01T03:49:41.409Z,0.00
2017-11-01T03:50:41.392Z,0.00
2017-11-01T03:51:41.377Z,0.00
2017-11-01T03:52:41.364Z,0.00
2017-11-01T03:53:41.349Z,0.00
2017-11-01T03:54:41.335Z,0.00
2017-11-01T03:55:41.320Z,0.00
2017-11-01T03:56:41.305Z,0.00
2017-11-01T03:57:41.291Z,0.00
2017-11-01T03:58:41.278Z,0.00
2017-11-01T03:59:41.263Z,0.00
2017-11-01T04:00:41.249Z,0.00
2017-11-01T04:01:41.234Z,0.00
2017-11-01T04:02:41.220Z,0.00
2017-11-01T04:03:41.205Z,0.00
2017-11-01T04:04:41.191Z,0.00
2017-11-01T04:05:41.177Z,0.00
2017-11-01T04:06:41.162Z,0.00
2017-11-01T04:07:41.148Z,0.00
2017-11-01T04:08:41.134Z,0.00
2017-11-01T04:09:41.120Z,0.00
2017-11-01T04:10:41.106Z,0.00
2017-11-01T04:11:41.092Z,0.00
2017-11-01T04:12:41.076Z,0.00
2017-11-01T04:13:41.063Z,0.00
2017-11-01T04:14:41.049Z,0.00
2017-11-01T04:15:41.034Z,0.00
2017-11-01T04:16:41.020Z,0.00
2017-11-01T04:17:41.006Z,0.00
2017-11-01T04:18:40.992Z,0.00
2017-11-01T04:19:40.976Z,0.00
2017-11-01T04:20:40.962Z,0.00
2017-11-01T04:21:40.948Z,0.00
2017-11-01T04:22:40.934Z,0.00
2017-11-01T04:23:40.920Z,0.00
2017-11-01T04:24:40.909Z,0.00
2017-11-01T04:25:40.891Z,0.00
2017-11-01T04:26:40.928Z,0.00
2017-11-01T04:27:40.871Z,0.00
2017-11-01T04:28:40.850Z,0.00
2017-11-01T04:29:40.834Z,0.00
2017-11-01T04:30:40.822Z,0.00
2017-11-01T04:31:40.806Z,0.00
2017-11-01T04:32:40.792Z,0.00
2017-11-01T04:33:40.779Z,0.00
2017-11-01T04:34:40.771Z,0.00
2017-11-01T04:35:40.748Z,0.00
2017-11-01T04:36:40.736Z,0.00
2017-11-01T04:37:40.721Z,0.00
2017-11-01T04:38:40.708Z,0.00
2017-11-01T04:39:40.693Z,0.00
2017-11-01T04:40:40.679Z,0.00
2017-11-01T04:41:40.667Z,0.00
2017-11-01T04:42:40.650Z,0.00
2017-11-01T04:43:40.636Z,0.00
2017-11-01T04:44:40.622Z,0.00
2017-11-01T04:45:40.608Z,0.00
2017-11-01T04:46:40.594Z,0.00
2017-11-01T04:47:40.579Z,0.00
2017-11-01T04:48:40.565Z,0.00
2017-11-01T04:49:40.554Z,0.00
2017-11-01T04:50:40.536Z,0.00
2017-11-01T04:51:40.526Z,0.00
2017-11-01T04:52:40.508Z,0.00
2017-11-01T04:53:40.496Z,0.00
2017-11-01T04:54:40.480Z,0.00
2017-11-01T04:55:40.466Z,0.00
2017-11-01T04:56:40.451Z,0.00
2017-11-01T04:57:40.437Z,0.00
2017-11-01T04:58:40.423Z,0.00
2017-11-01T04:59:40.409Z,0.00
2017-11-01T05:00:40.395Z,0.00
2017-11-01T05:01:40.386Z,0.00
2017-11-01T05:02:40.366Z,0.00
2017-11-01T05:03:40.352Z,0.00
2017-11-01T05:04:40.338Z,0.00
2017-11-01T05:05:40.326Z,0.00
2017-11-01T05:06:40.310Z,0.00
2017-11-01T05:07:40.300Z,0.00
2017-11-01T05:08:40.281Z,0.00
2017-11-01T05:09:40.267Z,0.00
2017-11-01T05:10:40.253Z,0.00
2017-11-01T05:11:40.239Z,0.00
2017-11-01T05:12:40.224Z,0.00
2017-11-01T05:13:40.210Z,0.00
2017-11-01T05:14:40.196Z,0.00
2017-11-01T05:15:40.181Z,0.00
2017-11-01T05:16:40.167Z,0.00
2017-11-01T05:17:40.154Z,0.00
2017-11-01T05:18:40.140Z,0.00
2017-11-01T05:19:40.125Z,0.00
2017-11-01T05:20:40.112Z,0.00
2017-11-01T05:21:40.097Z,0.00
2017-11-01T05:22:40.083Z,0.00
2017-11-01T05:23:40.068Z,0.00
2017-11-01T05:24:40.071Z,0.00
2017-11-01T05:25:40.040Z,0.00
2017-11-01T05:26:40.028Z,0.00
2017-11-01T05:27:40.011Z,0.00
2017-11-01T05:28:39.997Z,0.00
2017-11-01T05:29:39.984Z,0.00
2017-11-01T05:30:39.968Z,0.00
2017-11-01T05:31:39.955Z,0.00
2017-11-01T05:32:39.940Z,0.00
2017-11-01T05:33:39.928Z,0.00
2017-11-01T05:34:39.913Z,0.00
2017-11-01T05:35:39.898Z,0.00
2017-11-01T05:36:39.884Z,0.00
2017-11-01T05:37:39.870Z,0.00
2017-11-01T05:38:39.856Z,0.00
2017-11-01T05:39:39.841Z,0.00
2017-11-01T05:40:39.827Z,0.00
2017-11-01T05:41:39.813Z,0.00
2017-11-01T05:42:39.799Z,0.00
2017-11-01T05:43:39.784Z,0.00
2017-11-01T05:44:39.770Z,0.00
2017-11-01T05:45:39.756Z,0.00
2017-11-01T05:46:39.743Z,0.00
2017-11-01T05:47:39.727Z,0.00
2017-11-01T05:48:39.713Z,0.00
2017-11-01T05:49:39.700Z,0.00
2017-11-01T05:50:39.686Z,0.00
2017-11-01T05:51:39.671Z,0.00
2017-11-01T05:52:39.657Z,0.00
2017-11-01T05:53:39.646Z,0.00
2017-11-01T05:54:39.629Z,0.00
2017-11-01T05:55:39.614Z,0.00
2017-11-01T05:56:39.600Z,0.00
2017-11-01T05:57:39.586Z,0.00
2017-11-01T05:58:39.573Z,0.00
2017-11-01T05:59:39.562Z,0.00
2017-11-01T06:00:39.544Z,0.00
2017-11-01T06:01:39.530Z,0.00
2017-11-01T06:02:39.519Z,0.00
2017-11-01T06:03:39.500Z,0.00
2017-11-01T06:04:39.486Z,0.00
2017-11-01T06:05:39.473Z,0.00
2017-11-01T06:06:39.459Z,0.00
2017-11-01T06:07:39.443Z,0.00
2017-11-01T06:08:39.429Z,0.00
2017-11-01T06:09:39.417Z,0.00
2017-11-01T06:10:39.402Z,0.00
2017-11-01T06:11:39.388Z,0.00
2017-11-01T06:12:39.373Z,4.00
2017-11-01T06:13:39.361Z,4.00
2017-11-01T06:14:39.345Z,4.00
2017-11-01T06:15:39.330Z,4.00
2017-11-01T06:16:39.317Z,4.00
2017-11-01T06:17:39.302Z,4.00
2017-11-01T06:18:39.290Z,4.00
2017-11-01T06:19:39.274Z,8.00
2017-11-01T06:20:39.260Z,8.00
2017-11-01T06:21:39.245Z,8.00
2017-11-01T06:22:39.232Z,8.00
2017-11-01T06:23:39.218Z,8.00
2017-11-01T06:24:39.205Z,12.00
2017-11-01T06:25:39.189Z,12.00
2017-11-01T06:26:39.176Z,16.00
2017-11-01T06:27:39.160Z,12.00
2017-11-01T06:28:39.146Z,16.00
2017-11-01T06:29:39.133Z,16.00
2017-11-01T06:30:39.118Z,16.00
2017-11-01T06:31:39.104Z,20.00
2017-11-01T06:32:39.090Z,20.00
2017-11-01T06:33:39.074Z,24.00
2017-11-01T06:34:39.062Z,24.00
2017-11-01T06:35:39.047Z,24.00
2017-11-01T06:36:39.035Z,32.00
2017-11-01T06:37:39.020Z,36.00
2017-11-01T06:38:39.006Z,36.00
2017-11-01T06:39:38.989Z,36.00
2017-11-01T06:40:38.976Z,36.00
2017-11-01T06:41:38.963Z,36.00
2017-11-01T06:42:38.948Z,36.00
2017-11-01T06:43:38.933Z,44.00
2017-11-01T06:44:38.919Z,48.00
2017-11-01T06:45:38.908Z,56.00
2017-11-01T06:46:38.891Z,56.00
2017-11-01T06:47:38.877Z,52.00
2017-11-01T06:48:38.863Z,56.00
2017-11-01T06:49:38.849Z,64.00
2017-11-01T06:50:38.848Z,64.00
2017-11-01T06:51:38.821Z,68.00
2017-11-01T06:52:38.807Z,68.00
2017-11-01T06:53:38.793Z,76.00
2017-11-01T06:54:38.778Z,88.00
2017-11-01T06:55:38.766Z,88.00
2017-11-01T06:56:38.757Z,104.00
2017-11-01T06:57:38.736Z,108.00
2017-11-01T06:58:38.727Z,104.00
2017-11-01T06:59:38.706Z,104.00
2017-11-01T07:00:38.697Z,112.00
2017-11-01T07:01:38.678Z,108.00
2017-11-01T07:02:38.665Z,112.00
2017-11-01T07:03:38.650Z,120.00
2017-11-01T07:04:38.636Z,108.00
2017-11-01T07:05:38.622Z,128.00
2017-11-01T07:06:38.609Z,140.00
2017-11-01T07:07:38.596Z,148.00
2017-11-01T07:08:38.579Z,152.00
2017-11-01T07:09:38.566Z,128.00
2017-11-01T07:10:38.551Z,132.00
2017-11-01T07:11:38.536Z,152.00
2017-11-01T07:12:38.523Z,132.00
2017-11-01T07:13:38.509Z,124.00
2017-11-01T07:14:38.494Z,148.00
2017-11-01T07:15:38.480Z,144.00
2017-11-01T07:16:38.466Z,144.00
2017-11-01T07:17:38.453Z,160.00
2017-11-01T07:18:38.438Z,176.00
2017-11-01T07:19:38.427Z,168.00
2017-11-01T07:20:38.410Z,176.00
2017-11-01T07:21:38.395Z,168.00
2017-11-01T07:22:38.381Z,180.00
2017-11-01T07:23:38.366Z,192.00
2017-11-01T07:24:38.356Z,188.00
2017-11-01T07:25:38.339Z,160.00
2017-11-01T07:26:38.325Z,176.00
2017-11-01T07:27:38.310Z,192.00
2017-11-01T07:28:38.296Z,196.00
2017-11-01T07:29:38.282Z,212.00
2017-11-01T07:30:38.267Z,196.00
2017-11-01T07:31:38.254Z,212.00
2017-11-01T07:32:38.239Z,196.00
2017-11-01T07:33:38.226Z,228.00
2017-11-01T07:34:38.212Z,256.00
2017-11-01T07:35:38.197Z,272.00
2017-11-01T07:36:38.184Z,300.00
2017-11-01T07:37:38.169Z,276.00
2017-11-01T07:38:38.154Z,300.00
2017-11-01T07:39:38.140Z,416.00
2017-11-01T07:40:38.125Z,412.00
2017-11-01T07:41:38.112Z,384.00
2017-11-01T07:42:38.097Z,404.00
2017-11-01T07:43:38.084Z,420.00
2017-11-01T07:44:38.070Z,416.00
2017-11-01T07:45:38.056Z,348.00
2017-11-01T07:46:38.044Z,380.00
2017-11-01T07:47:38.027Z,328.00
2017-11-01T07:48:38.014Z,312.00
2017-11-01T07:49:37.999Z,340.00
2017-11-01T07:50:37.985Z,360.00
2017-11-01T07:51:37.970Z,368.00
2017-11-01T07:52:37.956Z,312.00
2017-11-01T07:53:37.943Z,324.00
2017-11-01T07:54:37.928Z,380.00
2017-11-01T07:55:37.914Z,392.00
2017-11-01T07:56:37.900Z,364.00
2017-11-01T07:57:37.886Z,372.00
2017-11-01T07:58:37.871Z,432.00
2017-11-01T07:59:37.857Z,444.00
2017-11-01T08:00:37.842Z,472.00
2017-11-01T08:01:37.833Z,464.00
2017-11-01T08:02:37.816Z,504.00
2017-11-01T08:03:37.800Z,540.00
2017-11-01T08:04:37.786Z,568.00
2017-11-01T08:05:37.773Z,552.00
2017-11-01T08:06:37.758Z,520.00
2017-11-01T08:07:37.744Z,604.00
2017-11-01T08:08:37.730Z,644.00
2017-11-01T08:09:37.716Z,648.00
2017-11-01T08:10:37.701Z,816.00
2017-11-01T08:11:37.686Z,868.00
2017-11-01T08:12:37.673Z,1012.00
2017-11-01T08:13:37.660Z,1000.00
2017-11-01T08:14:37.647Z,992.00
2017-11-01T08:15:37.630Z,952.00
2017-11-01T08:16:37.619Z,1032.00
2017-11-01T08:17:37.613Z,1168.00
2017-11-01T08:18:37.590Z,1336.00
2017-11-01T08:19:37.578Z,1168.00
2017-11-01T08:20:37.561Z,1176.00
2017-11-01T08:21:37.547Z,1008.00
2017-11-01T08:22:37.533Z,824.00
2017-11-01T08:23:37.530Z,880.00
2017-11-01T08:24:37.504Z,724.00
2017-11-01T08:25:37.491Z,680.00
2017-11-01T08:26:37.476Z,648.00
2017-11-01T08:27:37.461Z,648.00
2017-11-01T08:28:37.448Z,588.00
2017-11-01T08:29:37.434Z,632.00
2017-11-01T08:30:37.420Z,648.00
2017-11-01T08:31:37.406Z,756.00
2017-11-01T08:32:37.392Z,780.00
2017-11-01T08:33:37.378Z,764.00
2017-11-01T08:34:37.364Z,700.00
2017-11-01T08:35:37.349Z,684.00
2017-11-01T08:36:37.336Z,600.00
2017-11-01T08:37:37.321Z,600.00
2017-11-01T08:38:37.308Z,540.00
2017-11-01T08:39:37.293Z,756.00
2017-11-01T08:40:37.279Z,776.00
2017-11-01T08:41:37.265Z,764.00
2017-11-01T08:42:37.252Z,680.00
2017-11-01T08:43:37.237Z,740.00
2017-11-01T08:44:37.223Z,648.00
2017-11-01T08:45:37.209Z,644.00
2017-11-01T08:46:37.194Z,640.00
2017-11-01T08:47:37.181Z,792.00
2017-11-01T08:48:37.167Z,900.00
2017-11-01T08:49:37.152Z,1204.00
2017-11-01T08:50:37.139Z,1040.00
2017-11-01T08:51:37.124Z,1112.00
2017-11-01T08:52:37.111Z,1240.00
2017-11-01T08:53:37.097Z,1292.00
2017-11-01T08:54:37.083Z,1496.00
2017-11-01T08:55:37.069Z,1568.00
2017-11-01T08:56:37.056Z,1724.00
2017-11-01T08:57:37.041Z,1840.00
2017-11-01T08:58:37.027Z,1892.00
2017-11-01T08:59:37.012Z,1932.00
2017-11-01T09:00:36.998Z,2036.00
2017-11-01T09:01:36.984Z,2656.00
2017-11-01T09:02:36.972Z,2448.00
2017-11-01T09:03:36.955Z,2436.00
2017-11-01T09:04:36.951Z,2128.00
2017-11-01T09:05:36.927Z,2368.00
2017-11-01T09:06:36.914Z,2156.00
2017-11-01T09:07:36.910Z,2440.00
2017-11-01T09:08:36.886Z,1652.00
2017-11-01T09:09:36.872Z,1976.00
2017-11-01T09:10:36.858Z,1840.00
2017-11-01T09:11:36.845Z,1572.00
2017-11-01T09:12:36.830Z,1480.00
2017-11-01T09:13:36.817Z,1592.00
2017-11-01T09:14:36.803Z,1508.00
2017-11-01T09:15:36.787Z,1248.00
2017-11-01T09:16:36.773Z,1476.00
2017-11-01T09:17:36.760Z,1196.00
2017-11-01T09:18:36.747Z,1264.00
2017-11-01T09:19:36.732Z,1132.00
2017-11-01T09:20:36.718Z,1188.00
2017-11-01T09:21:36.704Z,1240.00
2017-11-01T09:22:36.691Z,1188.00
2017-11-01T09:23:36.676Z,1344.00
2017-11-01T09:24:36.663Z,1280.00
2017-11-01T09:25:36.649Z,1076.00
2017-11-01T09:26:36.635Z,984.00
2017-11-01T09:27:36.622Z,1012.00
2017-11-01T09:28:36.608Z,1024.00
2017-11-01T09:29:36.593Z,1124.00
2017-11-01T09:30:36.580Z,1208.00
2017-11-01T09:31:36.564Z,1328.00
2017-11-01T09:32:36.552Z,1328.00
2017-11-01T09:33:36.538Z,1332.00
2017-11-01T09:34:36.524Z,1312.00
2017-11-01T09:35:36.509Z,1196.00
2017-11-01T09:36:36.495Z,1412.00
2017-11-01T09:37:36.482Z,1436.00
2017-11-01T09:38:36.468Z,1520.00
2017-11-01T09:39:36.454Z,1756.00
2017-11-01T09:40:36.440Z,1840.00
2017-11-01T09:41:36.426Z,1972.00
2017-11-01T09:42:36.412Z,2304.00
2017-11-01T09:43:36.398Z,2388.00
2017-11-01T09:44:36.385Z,2540.00
2017-11-01T09:45:36.370Z,2384.00
2017-11-01T09:46:36.370Z,2636.00
2017-11-01T09:47:36.343Z,2536.00
2017-11-01T09:48:36.329Z,2696.00
2017-11-01T09:49:36.314Z,2964.00
2017-11-01T09:50:36.302Z,2584.00
2017-11-01T09:51:36.286Z,2252.00
2017-11-01T09:52:36.273Z,2068.00
2017-11-01T09:53:36.260Z,2108.00
2017-11-01T09:54:36.245Z,2176.00
2017-11-01T09:55:36.232Z,2176.00
2017-11-01T09:56:36.219Z,2468.00
2017-11-01T09:57:36.204Z,1824.00
2017-11-01T09:58:36.195Z,1864.00
2017-11-01T09:59:36.175Z,2308.00
2017-11-01T10:00:36.162Z,2292.00
2017-11-01T10:01:36.149Z,2176.00
2017-11-01T10:02:36.135Z,1960.00
2017-11-01T10:03:36.121Z,1532.00
2017-11-01T10:04:36.107Z,1956.00
2017-11-01T10:05:36.093Z,1904.00
2017-11-01T10:06:36.080Z,1652.00
2017-11-01T10:07:36.064Z,1700.00
2017-11-01T10:08:36.052Z,1488.00
2017-11-01T10:09:36.038Z,1428.00
2017-11-01T10:10:36.027Z,1196.00
2017-11-01T10:11:36.012Z,1068.00
2017-11-01T10:12:35.996Z,1068.00
2017-11-01T10:13:35.983Z,1080.00
2017-11-01T10:14:35.970Z,1028.00
2017-11-01T10:15:35.955Z,1160.00
2017-11-01T10:16:35.942Z,1248.00
2017-11-01T10:17:35.957Z,1260.00
2017-11-01T10:18:35.914Z,1292.00
2017-11-01T10:19:35.900Z,1368.00
2017-11-01T10:20:35.887Z,1688.00
2017-11-01T10:21:35.872Z,2052.00
2017-11-01T10:22:35.859Z,2156.00
2017-11-01T10:23:35.845Z,2320.00
2017-11-01T10:24:35.830Z,1884.00
2017-11-01T10:25:35.867Z,1516.00
2017-11-01T10:26:35.803Z,1640.00
2017-11-01T10:27:35.796Z,1820.00
2017-11-01T10:28:35.776Z,1924.00
2017-11-01T10:29:35.762Z,2360.00
2017-11-01T10:30:35.748Z,2296.00
2017-11-01T10:31:35.734Z,2708.00
2017-11-01T10:32:35.720Z,2428.00
2017-11-01T10:33:35.707Z,2164.00
2017-11-01T10:34:35.693Z,2140.00
2017-11-01T10:35:35.679Z,2112.00
2017-11-01T10:36:35.665Z,1972.00
2017-11-01T10:37:35.652Z,2048.00
2017-11-01T10:38:35.638Z,2016.00
2017-11-01T10:39:35.623Z,2764.00
2017-11-01T10:40:35.610Z,2224.00
2017-11-01T10:41:35.596Z,2304.00
2017-11-01T10:42:35.587Z,2272.00
2017-11-01T10:43:35.567Z,1864.00
2017-11-01T10:44:35.560Z,1912.00
2017-11-01T10:45:35.541Z,2452.00
2017-11-01T10:46:35.528Z,2212.00
2017-11-01T10:47:35.513Z,2308.00
2017-11-01T10:48:35.500Z,2296.00
2017-11-01T10:49:35.486Z,2500.00
2017-11-01T10:50:35.472Z,2660.00
2017-11-01T10:51:35.458Z,2540.00
2017-11-01T10:52:35.445Z,3112.00
2017-11-01T10:53:35.432Z,3340.00
2017-11-01T10:54:35.417Z,3308.00
2017-11-01T10:55:35.554Z,3980.00
2017-11-01T10:56:35.391Z,4072.00
2017-11-01T10:57:35.377Z,4508.00
2017-11-01T10:58:35.367Z,4624.00
2017-11-01T10:59:35.348Z,5312.00
2017-11-01T11:00:35.335Z,5940.00
2017-11-01T11:01:35.322Z,5784.00
2017-11-01T11:02:35.307Z,5492.00
2017-11-01T11:03:35.293Z,5800.00
2017-11-01T11:04:35.280Z,5956.00
2017-11-01T11:05:35.315Z,7612.00
2017-11-01T11:06:35.253Z,7756.00
2017-11-01T11:07:35.239Z,9352.00
2017-11-01T11:08:35.226Z,6960.00
2017-11-01T11:09:35.212Z,6444.00
2017-11-01T11:10:35.199Z,5544.00
2017-11-01T11:11:35.185Z,6076.00
2017-11-01T11:12:35.172Z,9604.00
2017-11-01T11:13:35.158Z,9352.00
2017-11-01T11:14:35.144Z,10696.00
2017-11-01T11:15:35.131Z,8832.00
2017-11-01T11:16:35.118Z,8860.00
2017-11-01T11:17:35.105Z,6920.00
2017-11-01T11:18:35.092Z,7044.00
2017-11-01T11:19:35.078Z,11076.00
2017-11-01T11:20:35.065Z,11904.00
2017-11-01T11:21:35.052Z,11456.00
2017-11-01T11:22:35.039Z,7732.00
2017-11-01T11:23:35.026Z,5672.00
2017-11-01T11:24:35.013Z,5964.00
2017-11-01T11:25:35.000Z,6652.00
2017-11-01T11:26:34.987Z,8204.00
2017-11-01T11:27:34.973Z,11884.00
2017-11-01T11:28:34.961Z,11664.00
2017-11-01T11:29:34.949Z,7608.00
2017-11-01T11:30:34.936Z,7180.00
2017-11-01T11:31:34.923Z,7232.00
2017-11-01T11:32:34.909Z,7744.00
2017-11-01T11:33:34.900Z,8336.00
2017-11-01T11:34:34.884Z,6924.00
2017-11-01T11:35:34.875Z,6164.00
2017-11-01T11:36:34.857Z,6092.00
2017-11-01T11:37:34.844Z,6284.00
2017-11-01T11:38:34.834Z,6520.00
2017-11-01T11:39:34.820Z,6552.00
2017-11-01T11:40:34.808Z,6620.00
2017-11-01T11:41:34.795Z,7552.00
2017-11-01T11:42:34.783Z,9924.00
2017-11-01T11:43:34.769Z,10608.00
2017-11-01T11:44:34.756Z,7652.00
2017-11-01T11:45:34.744Z,9104.00
2017-11-01T11:46:34.746Z,11148.00
2017-11-01T11:47:34.719Z,12180.00
2017-11-01T11:48:34.706Z,11496.00
2017-11-01T11:49:34.694Z,11180.00
2017-11-01T11:50:34.681Z,11072.00
2017-11-01T11:51:34.668Z,11748.00
2017-11-01T11:52:34.656Z,11808.00
2017-11-01T11:53:34.644Z,11380.00
2017-11-01T11:54:34.633Z,12456.00
2017-11-01T11:55:34.619Z,13128.00
2017-11-01T11:56:34.606Z,13424.00
2017-11-01T11:57:34.595Z,13764.00
2017-11-01T11:58:34.584Z,14972.00
2017-11-01T11:59:34.571Z,14968.00
2017-11-01T12:00:34.558Z,14360.00
2017-11-01T12:01:34.553Z,14256.00
2017-11-01T12:02:34.535Z,15864.00
2017-11-01T12:03:34.522Z,15112.00
2017-11-01T12:04:34.511Z,11760.00
2017-11-01T12:05:34.500Z,6948.00
2017-11-01T12:06:34.488Z,6564.00
2017-11-01T12:07:34.475Z,8248.00
2017-11-01T12:08:34.463Z,4072.00
2017-11-01T12:09:34.452Z,4032.00
2017-11-01T12:10:34.441Z,4012.00
2017-11-01T12:11:34.428Z,3512.00
2017-11-01T12:12:34.417Z,10892.00
2017-11-01T12:13:34.405Z,12704.00
2017-11-01T12:14:34.394Z,19648.00
2017-11-01T12:15:34.380Z,12448.00
2017-11-01T12:16:34.370Z,5648.00
2017-11-01T12:17:34.358Z,5964.00
2017-11-01T12:18:34.349Z,8616.00
2017-11-01T12:19:34.334Z,16704.00
2017-11-01T12:20:34.322Z,17216.00
2017-11-01T12:21:34.310Z,17120.00
2017-11-01T12:22:34.298Z,19968.00
2017-11-01T12:23:34.287Z,10456.00
2017-11-01T12:24:34.276Z,14360.00
2017-11-01T12:25:34.263Z,9616.00
2017-11-01T12:26:34.252Z,22784.00
2017-11-01T12:27:34.239Z,20096.00
2017-11-01T12:28:34.226Z,16224.00
2017-11-01T12:29:34.216Z,17888.00
2017-11-01T12:30:34.205Z,21888.00
2017-11-01T12:31:34.198Z,19520.00
2017-11-01T12:32:34.181Z,21024.00
2017-11-01T12:33:34.169Z,17888.00
2017-11-01T12:34:34.158Z,11916.00
2017-11-01T12:35:34.146Z,8176.00
2017-11-01T12:36:34.135Z,6704.00
2017-11-01T12:37:34.124Z,8392.00
2017-11-01T12:38:34.112Z,6392.00
2017-11-01T12:39:34.099Z,7056.00
2017-11-01T12:40:34.092Z,6392.00
2017-11-01T12:41:34.077Z,6784.00
2017-11-01T12:42:34.066Z,7144.00
2017-11-01T12:43:34.059Z,6444.00
2017-11-01T12:44:34.041Z,5552.00